createdAt,value
2019-01-31T00:01:38.508Z,80.48
2019-01-31T00:05:03.061Z,80.34
2019-01-31T00:09:02.437Z,80.08
2019-01-31T00:12:17.180Z,80.01
2019-01-31T00:15:21.381Z,79.36
2019-01-31T00:18:41.684Z,79.88
2019-01-31T00:21:52.688Z,79.87
2019-01-31T00:25:07.745Z,78.79
2019-01-31T00:28:17.193Z,77.21
2019-01-31T00:31:17.691Z,76.38
2019-01-31T00:34:18.617Z,76.57
2019-01-31T00:37:31.963Z,76.32
2019-01-31T00:40:48.533Z,75.97
2019-01-31T00:44:07.243Z,75.70
2019-01-31T00:47:22.078Z,74.82
2019-01-31T00:50:54.164Z,74.45
2019-01-31T00:53:59.314Z,74.38
2019-01-31T00:57:19.852Z,74.41
2019-01-31T01:00:20.042Z,74.30
2019-01-31T01:03:41.299Z,74.61
2019-01-31T01:07:08.639Z,74.82
2019-01-31T01:10:17.232Z,75.21
2019-01-31T01:13:33.023Z,75.39
2019-01-31T01:16:25.193Z,75.73
2019-01-31T01:19:38.413Z,75.65
2019-01-31T01:22:41.986Z,76.06
2019-01-31T01:26:23.452Z,75.87
2019-01-31T01:29:39.605Z,76.03
2019-01-31T01:33:28.508Z,76.40
2019-01-31T01:36:39.973Z,76.07
2019-01-31T01:40:07.131Z,75.87
2019-01-31T01:43:15.182Z,75.85
2019-01-31T01:46:46.929Z,76.08
2019-01-31T01:49:58.557Z,76.46
2019-01-31T01:53:24.051Z,76.61
2019-01-31T01:56:59.157Z,76.62
2019-01-31T02:00:18.433Z,76.84
2019-01-31T02:03:39.683Z,77.50
2019-01-31T02:06:56.679Z,78.16
2019-01-31T02:10:42.161Z,78.14
2019-01-31T02:14:26.786Z,78.58
2019-01-31T02:17:16.173Z,78.99
2019-01-31T02:20:45.431Z,79.06
2019-01-31T02:24:16.964Z,79.17
2019-01-31T02:27:43.061Z,79.96
2019-01-31T02:31:07.694Z,80.41
2019-01-31T02:34:39.550Z,80.13
2019-01-31T02:38:00.517Z,80.33
2019-01-31T02:41:04.760Z,81.38
2019-01-31T02:44:05.185Z,82.22
2019-01-31T02:47:31.936Z,82.61
2019-01-31T02:50:39.774Z,83.26
2019-01-31T02:53:48.544Z,83.37
2019-01-31T02:57:02.683Z,83.32
2019-01-31T03:00:30.443Z,83.61
2019-01-31T03:03:36.463Z,84.01
2019-01-31T03:06:53.923Z,84.23
2019-01-31T03:10:14.439Z,84.59
2019-01-31T03:13:27.476Z,84.78
2019-01-31T03:16:42.154Z,85.02
2019-01-31T03:20:41.893Z,85.45
2019-01-31T03:24:03.507Z,85.36
2019-01-31T03:27:42.679Z,84.24
2019-01-31T03:31:10.742Z,83.60
2019-01-31T03:34:27.490Z,82.94
2019-01-31T03:37:44.613Z,82.76
2019-01-31T03:41:06.280Z,82.49
2019-01-31T03:44:40.714Z,82.04
2019-01-31T03:48:06.054Z,81.96
2019-01-31T03:51:29.974Z,81.70
2019-01-31T03:54:55.100Z,81.55
2019-01-31T03:58:06.895Z,81.45
2019-01-31T04:01:39.599Z,81.23
2019-01-31T04:04:20.347Z,81.06
2019-01-31T04:06:51.293Z,80.84
2019-01-31T04:09:22.381Z,80.73
2019-01-31T04:11:53.402Z,80.96
2019-01-31T04:14:27.336Z,80.80
2019-01-31T04:16:57.339Z,80.53
2019-01-31T04:19:28.256Z,81.00
2019-01-31T04:21:59.784Z,81.44
2019-01-31T04:24:31.031Z,80.88
2019-01-31T04:27:02.012Z,80.73
2019-01-31T04:29:32.974Z,81.22
2019-01-31T04:32:03.850Z,81.09
2019-01-31T04:34:34.863Z,81.22
2019-01-31T04:37:05.848Z,80.98
2019-01-31T04:39:36.783Z,81.05
2019-01-31T04:42:07.659Z,80.98
2019-01-31T04:44:38.901Z,81.16
2019-01-31T04:47:09.881Z,81.29
2019-01-31T04:49:40.793Z,81.75
2019-01-31T04:52:11.722Z,82.00
2019-01-31T04:54:42.678Z,81.80
2019-01-31T04:57:14.125Z,81.70
2019-01-31T04:59:45.052Z,81.98
2019-01-31T05:02:16.249Z,82.10
2019-01-31T05:04:47.462Z,82.14
2019-01-31T05:07:18.669Z,82.23
2019-01-31T05:09:49.560Z,82.75
2019-01-31T05:12:20.497Z,83.19
2019-01-31T05:14:51.402Z,83.29
2019-01-31T05:17:22.549Z,83.54
2019-01-31T05:19:53.484Z,83.54
2019-01-31T05:22:24.389Z,83.45
2019-01-31T05:24:55.280Z,83.72
2019-01-31T05:27:26.369Z,83.83
2019-01-31T05:29:57.282Z,83.08
2019-01-31T05:32:28.226Z,83.00
2019-01-31T05:34:59.395Z,83.07
2019-01-31T05:37:30.298Z,82.77
2019-01-31T05:40:01.510Z,82.42
2019-01-31T05:42:32.452Z,81.95
2019-01-31T05:45:03.346Z,81.93
2019-01-31T05:47:34.237Z,81.86
2019-01-31T05:50:06.023Z,81.95
2019-01-31T05:52:36.899Z,82.13
2019-01-31T05:55:08.451Z,82.33
2019-01-31T05:57:40.138Z,82.52
2019-01-31T06:00:28.174Z,82.55
2019-01-31T06:02:59.103Z,82.95
2019-01-31T06:05:30.008Z,82.82
2019-01-31T06:08:01.216Z,82.88
2019-01-31T06:10:33.648Z,83.26
2019-01-31T06:13:05.037Z,82.89
2019-01-31T06:15:35.941Z,82.99
2019-01-31T06:18:07.317Z,82.93
2019-01-31T06:20:38.265Z,83.46
2019-01-31T06:23:09.221Z,84.01
2019-01-31T06:25:40.408Z,84.31
2019-01-31T06:28:13.030Z,84.46
2019-01-31T06:30:44.057Z,84.57
2019-01-31T06:33:15.050Z,84.67
2019-01-31T06:35:46.320Z,84.61
2019-01-31T06:38:17.264Z,84.72
2019-01-31T06:40:48.480Z,84.53
2019-01-31T06:43:19.450Z,84.29
2019-01-31T06:45:50.507Z,84.60
2019-01-31T06:48:21.475Z,84.73
2019-01-31T06:50:52.719Z,85.03
2019-01-31T06:53:23.688Z,85.06
2019-01-31T06:55:54.911Z,85.27
2019-01-31T06:58:26.468Z,85.67
2019-01-31T07:00:57.401Z,86.23
2019-01-31T07:03:28.613Z,86.57
2019-01-31T07:05:59.776Z,86.77
2019-01-31T07:08:31.009Z,87.47
2019-01-31T07:11:02.346Z,87.90
2019-01-31T07:13:33.947Z,88.18
2019-01-31T07:16:05.047Z,88.19
2019-01-31T07:18:36.301Z,88.14
2019-01-31T07:21:07.404Z,88.29
2019-01-31T07:23:38.367Z,88.30
2019-01-31T07:26:09.400Z,88.43
2019-01-31T07:28:40.314Z,88.70
2019-01-31T07:31:11.219Z,88.89
2019-01-31T07:33:42.256Z,88.59
2019-01-31T07:36:13.317Z,88.24
2019-01-31T07:38:44.342Z,88.17
2019-01-31T07:41:15.330Z,87.82
2019-01-31T07:43:46.888Z,87.55
2019-01-31T07:46:18.090Z,87.69
2019-01-31T07:48:49.341Z,87.59
2019-01-31T07:51:20.607Z,86.36
2019-01-31T07:53:51.810Z,80.88
2019-01-31T07:56:22.844Z,75.04
2019-01-31T07:58:53.776Z,72.53
2019-01-31T08:01:27.540Z,70.12
2019-01-31T08:04:02.443Z,66.68
2019-01-31T08:06:31.112Z,63.82
2019-01-31T08:09:02.055Z,61.95
2019-01-31T08:11:33.305Z,59.65
2019-01-31T08:14:04.584Z,60.07
2019-01-31T08:16:35.754Z,59.75
2019-01-31T08:19:06.960Z,59.18
2019-01-31T08:21:40.861Z,57.16
2019-01-31T08:24:10.580Z,55.70
2019-01-31T08:26:41.467Z,55.12
2019-01-31T08:29:12.432Z,55.69
2019-01-31T08:31:43.337Z,55.67
2019-01-31T08:34:15.488Z,54.50
2019-01-31T08:36:46.413Z,54.35
2019-01-31T08:39:17.318Z,53.35
2019-01-31T08:41:48.778Z,53.99
2019-01-31T08:44:20.015Z,53.46
2019-01-31T08:46:50.951Z,53.62
2019-01-31T08:49:21.919Z,53.40
2019-01-31T08:51:52.867Z,52.23
2019-01-31T08:54:23.745Z,51.16
2019-01-31T08:56:54.634Z,50.96
2019-01-31T08:59:25.915Z,51.27
2019-01-31T09:01:56.789Z,52.31
2019-01-31T09:04:27.841Z,53.79
2019-01-31T09:07:02.271Z,53.12
2019-01-31T09:09:33.223Z,52.93
2019-01-31T09:12:14.746Z,52.05
2019-01-31T09:14:37.068Z,51.45
2019-01-31T09:17:08.057Z,50.64
2019-01-31T09:19:39.356Z,51.28
2019-01-31T09:23:25.188Z,51.58
2019-01-31T09:26:34.932Z,51.91
2019-01-31T09:30:23.489Z,52.36
2019-01-31T09:34:03.616Z,52.78
2019-01-31T09:37:46.269Z,53.72
2019-01-31T09:41:37.160Z,54.41
2019-01-31T09:45:04.682Z,54.67
2019-01-31T09:48:22.651Z,55.76
2019-01-31T09:51:38.393Z,56.02
2019-01-31T09:55:01.237Z,56.58
2019-01-31T09:58:23.030Z,57.11
2019-01-31T10:01:20.527Z,58.47
2019-01-31T10:04:53.593Z,59.01
2019-01-31T10:07:51.553Z,58.50
2019-01-31T10:10:57.763Z,59.20
2019-01-31T10:14:30.963Z,59.34
2019-01-31T10:18:15.711Z,59.46
2019-01-31T10:22:06.539Z,59.09
2019-01-31T10:25:12.822Z,59.01
2019-01-31T10:28:20.996Z,59.39
2019-01-31T10:31:48.783Z,59.47
2019-01-31T10:35:02.532Z,59.46
2019-01-31T10:38:16.896Z,59.49
2019-01-31T10:41:26.789Z,60.22
2019-01-31T10:45:05.717Z,61.18
2019-01-31T10:48:20.791Z,59.63
2019-01-31T10:51:34.245Z,59.63
2019-01-31T10:55:23.028Z,60.70
2019-01-31T10:58:45.283Z,60.27
2019-01-31T11:02:21.184Z,60.26
2019-01-31T11:06:10.389Z,59.75
2019-01-31T11:09:13.356Z,59.98
2019-01-31T11:12:41.688Z,59.11
2019-01-31T11:15:55.295Z,58.87
2019-01-31T11:19:23.681Z,58.47
2019-01-31T11:22:45.577Z,59.14
2019-01-31T11:26:29.056Z,59.44
2019-01-31T11:30:00.363Z,58.81
2019-01-31T11:32:54.215Z,58.96
2019-01-31T11:36:41.661Z,58.98
2019-01-31T11:40:14.442Z,57.93
2019-01-31T11:43:19.269Z,58.30
2019-01-31T11:46:54.655Z,58.17
2019-01-31T11:50:32.772Z,57.82
2019-01-31T11:53:19.558Z,59.31
2019-01-31T11:56:51.990Z,58.85
2019-01-31T11:59:22.870Z,59.04
2019-01-31T12:01:53.972Z,59.29
2019-01-31T12:04:24.987Z,58.64
2019-01-31T12:06:55.916Z,58.20
2019-01-31T12:09:26.835Z,58.88
2019-01-31T12:11:57.942Z,57.44
2019-01-31T12:14:28.833Z,58.62
2019-01-31T12:16:59.759Z,59.20
2019-01-31T12:19:30.743Z,60.25
2019-01-31T12:22:01.811Z,59.56
2019-01-31T12:24:33.097Z,59.09
2019-01-31T12:27:04.430Z,60.18
2019-01-31T12:29:35.352Z,59.28
2019-01-31T12:32:06.322Z,59.48
2019-01-31T12:34:43.017Z,59.07
2019-01-31T12:37:12.999Z,60.17
2019-01-31T12:39:43.988Z,59.45
2019-01-31T12:42:15.006Z,59.66
2019-01-31T12:44:46.188Z,59.08
2019-01-31T12:47:17.436Z,59.22
2019-01-31T12:49:48.385Z,59.97
2019-01-31T12:52:19.357Z,58.84
2019-01-31T12:54:50.640Z,58.60
2019-01-31T12:57:21.953Z,58.01
2019-01-31T12:59:52.861Z,59.42
2019-01-31T13:02:23.786Z,58.78
2019-01-31T13:04:54.678Z,58.73
2019-01-31T13:07:25.714Z,57.01
2019-01-31T13:10:00.536Z,56.85
2019-01-31T13:12:31.631Z,57.47
2019-01-31T13:15:02.814Z,56.98
2019-01-31T13:17:34.031Z,57.15
2019-01-31T13:20:09.673Z,56.50
2019-01-31T13:22:43.569Z,57.85
2019-01-31T13:25:15.801Z,57.24
2019-01-31T13:27:46.870Z,57.55
2019-01-31T13:30:20.461Z,57.20
2019-01-31T13:32:51.949Z,57.41
2019-01-31T13:35:23.013Z,56.94
2019-01-31T13:37:54.459Z,56.47
2019-01-31T13:40:27.344Z,57.17
2019-01-31T13:42:59.289Z,57.98
2019-01-31T13:45:36.395Z,56.93
2019-01-31T13:48:14.483Z,56.93
2019-01-31T13:50:45.388Z,57.33
2019-01-31T13:53:16.985Z,57.23
2019-01-31T13:55:48.289Z,57.30
2019-01-31T13:58:19.297Z,58.07
2019-01-31T14:00:50.465Z,57.42
2019-01-31T14:03:21.468Z,57.78
2019-01-31T14:05:52.367Z,57.73
2019-01-31T14:08:23.278Z,58.06
2019-01-31T14:10:54.197Z,58.46
2019-01-31T14:13:25.081Z,58.23
2019-01-31T14:15:56.000Z,58.07
2019-01-31T14:18:27.082Z,58.36
2019-01-31T14:20:58.045Z,58.37
2019-01-31T14:23:28.996Z,58.71
2019-01-31T14:25:59.987Z,58.69
2019-01-31T14:28:30.901Z,58.14
2019-01-31T14:31:01.789Z,58.75
2019-01-31T14:33:32.986Z,57.64
2019-01-31T14:36:05.076Z,57.97
2019-01-31T14:38:38.477Z,57.73
2019-01-31T14:41:09.494Z,58.53
2019-01-31T14:43:42.371Z,58.82
2019-01-31T14:46:13.429Z,58.31
2019-01-31T14:48:44.454Z,57.82
2019-01-31T14:51:15.368Z,57.58
2019-01-31T14:53:46.366Z,57.93
2019-01-31T14:56:17.351Z,57.91
2019-01-31T14:58:49.734Z,58.08
2019-01-31T15:01:20.658Z,59.14
2019-01-31T15:03:51.822Z,59.38
2019-01-31T15:06:23.044Z,60.21
2019-01-31T15:08:54.040Z,60.55
2019-01-31T15:11:25.000Z,61.05
2019-01-31T15:13:56.012Z,61.17
2019-01-31T15:16:27.041Z,60.78
2019-01-31T15:18:58.280Z,60.76
2019-01-31T15:21:29.280Z,59.80
2019-01-31T15:24:03.045Z,59.89
2019-01-31T15:26:34.193Z,59.81
2019-01-31T15:29:05.558Z,60.22
2019-01-31T15:31:36.539Z,60.80
2019-01-31T15:34:07.875Z,60.96
2019-01-31T15:36:38.759Z,61.19
2019-01-31T15:39:10.978Z,61.40
2019-01-31T15:41:41.971Z,61.68
2019-01-31T15:44:12.948Z,62.08
2019-01-31T15:46:44.094Z,62.31
2019-01-31T15:49:14.984Z,62.66
2019-01-31T15:51:45.890Z,63.27
2019-01-31T15:54:17.156Z,63.28
2019-01-31T15:56:48.164Z,63.63
2019-01-31T15:59:19.103Z,63.68
2019-01-31T16:01:50.203Z,63.84
2019-01-31T16:04:22.536Z,63.50
2019-01-31T16:06:53.580Z,64.08
2019-01-31T16:09:24.593Z,64.02
2019-01-31T16:11:55.499Z,64.21
2019-01-31T16:14:26.689Z,63.91
2019-01-31T16:16:58.123Z,63.23
2019-01-31T16:19:32.269Z,63.70
2019-01-31T16:22:04.621Z,64.06
2019-01-31T16:24:35.513Z,64.29
2019-01-31T16:27:07.852Z,64.34
2019-01-31T16:29:41.849Z,64.02
2019-01-31T16:32:13.679Z,64.13
2019-01-31T16:34:45.009Z,64.00
2019-01-31T16:37:15.924Z,64.51
2019-01-31T16:39:46.853Z,64.40
2019-01-31T16:42:17.909Z,64.38
2019-01-31T16:44:48.941Z,64.29
2019-01-31T16:47:20.012Z,64.68
2019-01-31T16:49:52.878Z,65.02
2019-01-31T16:52:23.851Z,65.19
2019-01-31T16:54:55.045Z,65.52
2019-01-31T16:57:26.320Z,65.84
2019-01-31T16:59:57.457Z,66.08
2019-01-31T17:02:28.471Z,66.40
2019-01-31T17:04:59.451Z,66.80
2019-01-31T17:07:30.670Z,67.32
2019-01-31T17:10:01.569Z,67.45
2019-01-31T17:12:32.851Z,67.51
2019-01-31T17:15:03.791Z,67.80
2019-01-31T17:17:35.100Z,67.68
2019-01-31T17:20:08.518Z,67.75
2019-01-31T17:22:39.425Z,67.53
2019-01-31T17:25:12.233Z,68.21
2019-01-31T17:27:46.205Z,67.89
2019-01-31T17:30:23.117Z,68.11
2019-01-31T17:32:54.562Z,68.11
2019-01-31T17:35:25.470Z,68.03
2019-01-31T17:37:56.568Z,68.26
2019-01-31T17:40:37.597Z,68.37
2019-01-31T17:43:09.899Z,68.48
2019-01-31T17:45:40.851Z,68.24
2019-01-31T17:48:16.426Z,67.97
2019-01-31T17:50:48.270Z,68.55
2019-01-31T17:53:19.147Z,68.41
2019-01-31T17:55:50.115Z,68.71
2019-01-31T17:58:21.004Z,68.97
2019-01-31T18:00:57.655Z,68.97
2019-01-31T18:03:29.167Z,69.28
2019-01-31T18:06:00.761Z,69.67
2019-01-31T18:08:32.076Z,70.12
2019-01-31T18:11:02.947Z,69.92
2019-01-31T18:13:33.870Z,69.77
2019-01-31T18:16:05.547Z,69.87
2019-01-31T18:18:36.896Z,69.68
2019-01-31T18:21:09.084Z,70.18
2019-01-31T18:23:39.989Z,69.87
2019-01-31T18:26:10.911Z,69.76
2019-01-31T18:28:44.407Z,70.31
2019-01-31T18:31:15.705Z,70.48
2019-01-31T18:33:46.675Z,70.56
2019-01-31T18:36:17.730Z,70.62
2019-01-31T18:38:48.940Z,70.50
2019-01-31T18:41:20.041Z,71.49
2019-01-31T18:43:51.271Z,71.50
2019-01-31T18:46:22.551Z,71.87
2019-01-31T18:48:53.510Z,72.11
2019-01-31T18:51:24.508Z,72.08
2019-01-31T18:53:55.909Z,72.34
2019-01-31T18:56:27.349Z,72.25
2019-01-31T18:59:01.269Z,72.31
2019-01-31T19:01:32.267Z,72.56
2019-01-31T19:04:03.260Z,72.72
2019-01-31T19:06:34.482Z,72.43
2019-01-31T19:09:07.455Z,72.51
2019-01-31T19:11:38.938Z,72.18
2019-01-31T19:14:10.691Z,72.13
2019-01-31T19:16:42.214Z,71.89
2019-01-31T19:19:13.531Z,72.37
2019-01-31T19:21:44.482Z,72.30
2019-01-31T19:24:15.665Z,72.30
2019-01-31T19:26:49.241Z,72.39
2019-01-31T19:29:21.487Z,72.48
2019-01-31T19:31:52.461Z,72.90
2019-01-31T19:34:23.336Z,73.37
2019-01-31T19:36:56.323Z,73.92
2019-01-31T19:39:27.258Z,74.32
2019-01-31T19:41:58.538Z,74.50
2019-01-31T19:44:29.711Z,74.78
2019-01-31T19:47:02.216Z,74.79
2019-01-31T19:49:33.229Z,74.86
2019-01-31T19:52:04.560Z,74.91
2019-01-31T19:54:35.541Z,74.66
2019-01-31T19:57:07.040Z,74.83
2019-01-31T19:59:38.050Z,75.13
2019-01-31T20:02:12.496Z,75.09
2019-01-31T20:04:43.450Z,74.87
2019-01-31T20:07:15.027Z,74.64
2019-01-31T20:09:46.118Z,74.47
2019-01-31T20:12:17.146Z,74.51
2019-01-31T20:14:48.314Z,74.37
2019-01-31T20:17:19.488Z,74.24
2019-01-31T20:19:51.568Z,74.13
2019-01-31T20:22:23.983Z,74.29
2019-01-31T20:24:54.953Z,73.75
2019-01-31T20:27:25.872Z,73.93
2019-01-31T20:30:01.956Z,73.43
2019-01-31T20:32:32.857Z,73.98
2019-01-31T20:35:04.189Z,73.34
2019-01-31T20:37:35.510Z,73.96
2019-01-31T20:40:09.582Z,74.15
2019-01-31T20:42:40.476Z,74.31
2019-01-31T20:45:13.964Z,74.64
2019-01-31T20:47:44.972Z,74.46
2019-01-31T20:50:25.513Z,74.68
2019-01-31T20:52:56.634Z,74.50
2019-01-31T20:55:29.263Z,74.81
2019-01-31T20:58:00.480Z,74.64
2019-01-31T21:00:41.717Z,74.41
2019-01-31T21:03:13.066Z,74.29
2019-01-31T21:05:44.740Z,74.39
2019-01-31T21:08:16.554Z,74.35
2019-01-31T21:10:47.689Z,74.40
2019-01-31T21:13:18.655Z,74.15
2019-01-31T21:15:52.674Z,74.04
2019-01-31T21:18:24.202Z,74.02
2019-01-31T21:20:55.532Z,74.31
2019-01-31T21:23:26.512Z,74.13
2019-01-31T21:25:58.130Z,74.23
2019-01-31T21:28:29.056Z,74.30
2019-01-31T21:31:00.867Z,74.42
2019-01-31T21:33:31.809Z,74.43
2019-01-31T21:36:02.738Z,74.28
2019-01-31T21:38:33.739Z,74.36
2019-01-31T21:41:04.686Z,74.25
2019-01-31T21:43:35.601Z,73.70
2019-01-31T21:46:06.694Z,73.83
2019-01-31T21:48:38.440Z,74.06
2019-01-31T21:51:09.423Z,73.96
2019-01-31T21:53:40.409Z,74.22
2019-01-31T21:56:11.407Z,74.12
2019-01-31T21:58:42.446Z,74.40
2019-01-31T22:01:13.354Z,74.46
2019-01-31T22:03:44.688Z,74.68
2019-01-31T22:06:22.244Z,75.11
2019-01-31T22:08:48.775Z,75.44
2019-01-31T22:11:19.777Z,75.28
2019-01-31T22:13:50.769Z,75.02
2019-01-31T22:16:21.702Z,75.21
2019-01-31T22:18:52.679Z,75.37
2019-01-31T22:21:23.602Z,75.60
2019-01-31T22:23:54.974Z,75.23
2019-01-31T22:26:25.926Z,75.94
2019-01-31T22:28:57.172Z,75.78
2019-01-31T22:31:28.263Z,75.76
2019-01-31T22:33:59.259Z,76.11
2019-01-31T22:36:30.182Z,75.68
2019-01-31T22:39:01.490Z,75.85
2019-01-31T22:41:32.378Z,76.13
2019-01-31T22:44:03.325Z,76.32
2019-01-31T22:46:34.650Z,76.31
2019-01-31T22:49:05.852Z,76.58
2019-01-31T22:51:37.563Z,76.52
2019-01-31T22:54:08.635Z,75.91
2019-01-31T22:56:39.542Z,76.75
2019-01-31T22:59:10.459Z,76.68
2019-01-31T23:01:50.616Z,77.21
2019-01-31T23:04:21.734Z,76.90
2019-01-31T23:06:52.624Z,77.00
2019-01-31T23:09:23.642Z,77.14
2019-01-31T23:11:54.625Z,77.18
2019-01-31T23:14:25.632Z,77.09
2019-01-31T23:16:56.568Z,77.42
2019-01-31T23:19:27.504Z,77.29
2019-01-31T23:22:16.104Z,77.46
2019-01-31T23:24:47.109Z,77.63
2019-01-31T23:27:18.074Z,77.98
2019-01-31T23:29:49.047Z,78.16
2019-01-31T23:32:19.950Z,78.20
2019-01-31T23:34:51.151Z,78.27
2019-01-31T23:37:22.114Z,78.18
2019-01-31T23:39:53.320Z,78.51
2019-01-31T23:42:24.232Z,78.92
2019-01-31T23:44:55.274Z,78.93
2019-01-31T23:47:26.254Z,79.22
2019-01-31T23:49:57.461Z,79.00
2019-01-31T23:52:28.776Z,78.98
2019-01-31T23:54:59.745Z,79.21
2019-01-31T23:57:31.037Z,79.40
